createdAt,value
2023-01-09T00:01:53.294Z,4.97
2023-01-09T00:06:56.718Z,6.60
2023-01-09T00:12:02.682Z,5.87
2023-01-09T00:17:06.173Z,6.53
2023-01-09T00:22:10.120Z,6.53
2023-01-09T00:27:15.609Z,6.50
2023-01-09T00:32:20.532Z,6.23
2023-01-09T00:37:24.637Z,6.00
2023-01-09T00:42:32.997Z,4.97
2023-01-09T00:47:43.036Z,4.27
2023-01-09T00:52:47.918Z,4.00
2023-01-09T00:57:52.878Z,4.50
2023-01-09T01:02:56.391Z,4.73
2023-01-09T01:07:59.823Z,5.50
2023-01-09T01:13:04.703Z,5.00
2023-01-09T01:18:08.852Z,4.30
2023-01-09T01:23:12.611Z,4.30
2023-01-09T01:28:17.447Z,4.03
2023-01-09T01:33:20.854Z,5.20
2023-01-09T01:38:24.259Z,4.40
2023-01-09T01:43:29.759Z,3.77
2023-01-09T01:48:33.959Z,3.50
2023-01-09T01:53:39.961Z,5.50
2023-01-09T01:58:47.612Z,4.40
2023-01-09T02:03:53.595Z,2.77
2023-01-09T02:08:57.623Z,1.10
2023-01-09T02:14:03.406Z,5.70
2023-01-09T02:19:18.432Z,5.60
2023-01-09T02:24:38.265Z,4.23
2023-01-09T02:30:11.720Z,3.87
2023-01-09T02:35:31.131Z,4.80
2023-01-09T02:40:40.905Z,2.30
2023-01-09T02:45:44.391Z,1.20
2023-01-09T02:50:58.510Z,1.63
2023-01-09T02:56:17.929Z,0.80
2023-01-09T03:01:29.030Z,0.90
2023-01-09T03:06:39.732Z,2.60
2023-01-09T03:11:49.113Z,0.80
2023-01-09T03:16:58.140Z,2.40
2023-01-09T03:22:03.302Z,1.00
2023-01-09T03:27:08.960Z,3.63
2023-01-09T03:32:12.566Z,4.13
2023-01-09T03:37:17.434Z,3.07
2023-01-09T03:42:20.888Z,1.93
2023-01-09T03:47:24.449Z,1.87
2023-01-09T03:52:29.415Z,3.83
2023-01-09T03:57:32.839Z,3.23
2023-01-09T04:02:36.241Z,3.07
2023-01-09T04:07:41.510Z,2.20
2023-01-09T04:12:44.914Z,3.17
2023-01-09T04:17:48.358Z,2.50
2023-01-09T04:22:53.232Z,2.50
2023-01-09T04:27:56.714Z,1.60
2023-01-09T04:33:00.176Z,1.33
2023-01-09T04:38:05.091Z,2.00
2023-01-09T04:43:08.530Z,1.77
2023-01-09T04:48:11.991Z,1.57
2023-01-09T04:53:16.921Z,1.40
2023-01-09T04:58:20.372Z,1.40
2023-01-09T05:03:23.803Z,1.33
2023-01-09T05:08:41.011Z,1.17
2023-01-09T05:13:45.179Z,1.30
2023-01-09T05:18:48.946Z,1.40
2023-01-09T05:23:53.851Z,1.30
2023-01-09T05:28:57.680Z,1.53
2023-01-09T05:34:01.122Z,1.03
2023-01-09T05:39:06.704Z,1.50
2023-01-09T05:44:10.088Z,1.80
2023-01-09T05:49:13.518Z,1.50
2023-01-09T05:54:18.354Z,2.17
2023-01-09T05:59:21.749Z,2.20
2023-01-09T06:04:25.818Z,2.00
2023-01-09T06:09:30.922Z,1.80
2023-01-09T06:14:34.657Z,1.80
2023-01-09T06:19:38.094Z,0.90
2023-01-09T06:24:43.174Z,0.70
2023-01-09T06:29:46.628Z,0.80
2023-01-09T06:34:50.067Z,1.90
2023-01-09T06:39:55.037Z,2.20
2023-01-09T06:44:58.442Z,2.10
2023-01-09T06:50:10.285Z,1.90
2023-01-09T06:55:16.845Z,3.33
2023-01-09T07:00:20.929Z,2.10
2023-01-09T07:05:24.507Z,2.30
2023-01-09T07:10:29.462Z,2.00
2023-01-09T07:15:32.834Z,2.20
2023-01-09T07:20:36.214Z,2.30
2023-01-09T07:25:41.413Z,1.77
2023-01-09T07:30:45.014Z,1.60
2023-01-09T07:35:48.455Z,1.20
2023-01-09T07:40:53.407Z,0.93
2023-01-09T07:45:56.826Z,0.73
2023-01-09T07:51:00.301Z,0.60
2023-01-09T07:56:05.400Z,0.60
2023-01-09T08:01:09.081Z,0.80
2023-01-09T08:06:12.653Z,0.97
2023-01-09T08:11:17.601Z,1.80
2023-01-09T08:16:21.093Z,1.90
2023-01-09T08:21:24.557Z,2.20
2023-01-09T08:26:29.510Z,1.70
2023-01-09T08:31:33.041Z,2.37
2023-01-09T08:36:36.474Z,2.13
2023-01-09T08:41:58.878Z,2.10
2023-01-09T08:47:08.140Z,2.10
2023-01-09T08:52:12.392Z,2.50
2023-01-09T08:57:17.324Z,3.00
2023-01-09T09:02:20.777Z,2.73
2023-01-09T09:07:26.898Z,2.73
2023-01-09T09:12:31.736Z,2.50
2023-01-09T09:17:35.193Z,2.40
2023-01-09T09:22:38.800Z,2.63
2023-01-09T09:27:43.928Z,2.77
2023-01-09T09:32:48.062Z,2.70
2023-01-09T09:37:59.365Z,3.00
2023-01-09T09:43:43.465Z,2.90
2023-01-09T09:48:53.321Z,2.93
2023-01-09T09:54:01.312Z,3.83
2023-01-09T09:59:12.555Z,2.80
2023-01-09T10:04:20.290Z,3.17
2023-01-09T10:09:35.261Z,3.00
2023-01-09T10:14:40.991Z,3.00
2023-01-09T10:20:14.009Z,2.80
2023-01-09T10:25:25.143Z,2.87
2023-01-09T10:30:37.751Z,3.37
2023-01-09T10:36:14.446Z,3.27
2023-01-09T10:41:24.095Z,14.40
2023-01-09T10:46:32.576Z,3.53
2023-01-09T10:51:45.245Z,3.50
2023-01-09T10:56:56.089Z,3.70
2023-01-09T11:02:02.440Z,3.40
2023-01-09T11:07:13.701Z,3.40
2023-01-09T11:12:26.581Z,2.90
2023-01-09T11:17:31.447Z,3.50
2023-01-09T11:22:47.307Z,3.70
2023-01-09T11:28:06.440Z,3.80
2023-01-09T11:33:20.112Z,3.67
2023-01-09T11:38:23.500Z,3.57
2023-01-09T11:43:34.588Z,3.70
2023-01-09T11:48:54.976Z,3.90
2023-01-09T11:54:18.963Z,3.63
2023-01-09T11:59:26.585Z,4.37
2023-01-09T12:04:36.605Z,5.33
2023-01-09T12:09:45.889Z,5.60
2023-01-09T12:15:01.352Z,5.07
2023-01-09T12:20:32.517Z,4.10
2023-01-09T12:25:45.971Z,3.80
2023-01-09T12:31:03.481Z,3.73
2023-01-09T12:36:16.420Z,3.90
2023-01-09T12:41:44.778Z,3.83
2023-01-09T12:46:59.028Z,3.90
2023-01-09T12:52:11.187Z,4.50
2023-01-09T12:57:24.638Z,4.60
2023-01-09T13:02:33.810Z,4.50
2023-01-09T13:07:43.368Z,5.23
2023-01-09T13:12:49.543Z,5.37
2023-01-09T13:17:56.160Z,5.37
2023-01-09T13:23:01.933Z,4.60
2023-01-09T13:28:12.757Z,4.53
2023-01-09T13:33:21.800Z,2.87
2023-01-09T13:38:30.847Z,2.83
2023-01-09T13:43:55.740Z,4.77
2023-01-09T13:48:59.180Z,3.90
2023-01-09T13:54:04.109Z,4.23
2023-01-09T13:59:28.303Z,4.43
2023-01-09T14:04:45.884Z,4.30
2023-01-09T14:09:58.510Z,4.80
2023-01-09T14:15:03.497Z,4.20
2023-01-09T14:20:10.599Z,4.80
2023-01-09T14:25:24.791Z,4.63
2023-01-09T14:30:34.359Z,5.30
2023-01-09T14:35:44.245Z,4.87
2023-01-09T14:40:54.589Z,4.70
2023-01-09T14:46:09.965Z,5.57
2023-01-09T14:51:17.982Z,4.80
2023-01-09T14:56:31.810Z,5.13
2023-01-09T15:01:37.178Z,5.33
2023-01-09T15:06:44.661Z,5.30
2023-01-09T15:11:49.929Z,5.37
2023-01-09T15:16:53.659Z,5.30
2023-01-09T15:22:02.746Z,4.80
2023-01-09T15:27:15.836Z,4.23
2023-01-09T15:32:24.722Z,5.23
2023-01-09T15:37:31.454Z,4.80
2023-01-09T15:42:58.577Z,5.80
2023-01-09T15:48:25.992Z,5.60
2023-01-09T15:53:30.578Z,6.33
2023-01-09T15:58:38.295Z,5.57
2023-01-09T16:03:41.818Z,7.13
2023-01-09T16:08:56.029Z,5.97
2023-01-09T16:14:12.103Z,5.30
2023-01-09T16:19:31.659Z,5.20
2023-01-09T16:24:42.191Z,4.43
2023-01-09T16:29:50.113Z,2.40
2023-01-09T16:34:56.072Z,2.50
2023-01-09T16:40:25.675Z,2.20
2023-01-09T16:45:33.234Z,1.40
2023-01-09T16:50:36.879Z,1.07
2023-01-09T16:55:40.452Z,1.20
2023-01-09T17:00:48.162Z,0.93
2023-01-09T17:05:54.200Z,1.73
2023-01-09T17:10:58.314Z,2.43
2023-01-09T17:16:03.293Z,2.60
2023-01-09T17:21:07.017Z,3.60
2023-01-09T17:26:40.071Z,2.90
2023-01-09T17:31:44.956Z,6.60
2023-01-09T17:36:48.751Z,6.80
2023-01-09T17:41:52.211Z,5.83
2023-01-09T17:46:57.119Z,5.10
2023-01-09T17:52:00.676Z,4.33
2023-01-09T17:57:04.667Z,5.50
2023-01-09T18:02:17.257Z,4.53
2023-01-09T18:07:21.215Z,4.40
2023-01-09T18:12:24.831Z,2.90
2023-01-09T18:17:29.880Z,3.50
2023-01-09T18:22:34.765Z,3.13
2023-01-09T18:27:39.602Z,2.23
2023-01-09T18:32:44.563Z,5.70
2023-01-09T18:37:48.790Z,5.47
2023-01-09T18:42:52.901Z,4.40
2023-01-09T18:47:57.873Z,3.93
2023-01-09T18:53:01.678Z,4.83
2023-01-09T18:58:06.359Z,4.53
2023-01-09T19:03:16.743Z,4.73
2023-01-09T19:08:21.641Z,4.80
2023-01-09T19:13:26.016Z,4.47
2023-01-09T19:18:34.622Z,4.70
2023-01-09T19:23:38.790Z,5.43
2023-01-09T19:28:45.147Z,5.33
2023-01-09T19:33:50.721Z,5.37
2023-01-09T19:38:58.209Z,5.37
2023-01-09T19:44:03.049Z,4.93
2023-01-09T19:49:09.611Z,5.50
2023-01-09T19:54:14.096Z,4.87
2023-01-09T19:59:19.045Z,2.73
2023-01-09T20:04:27.029Z,10.17
2023-01-09T20:09:30.746Z,8.80
2023-01-09T20:14:36.999Z,7.13
2023-01-09T20:19:45.616Z,8.63
2023-01-09T20:24:49.852Z,7.37
2023-01-09T20:29:53.400Z,6.73
2023-01-09T20:34:59.090Z,6.47
2023-01-09T20:40:02.961Z,5.97
2023-01-09T20:45:07.339Z,5.20
2023-01-09T20:50:13.392Z,6.00
2023-01-09T20:55:16.965Z,4.73
2023-01-09T21:00:21.059Z,5.37
2023-01-09T21:05:26.114Z,5.20
2023-01-09T21:10:29.615Z,10.17
2023-01-09T21:15:33.058Z,7.80
2023-01-09T21:20:37.928Z,7.20
2023-01-09T21:25:41.387Z,6.67
2023-01-09T21:30:49.640Z,7.30
2023-01-09T21:35:58.976Z,5.37
2023-01-09T21:41:22.555Z,7.40
2023-01-09T21:46:43.024Z,8.37
2023-01-09T21:51:47.893Z,5.00
2023-01-09T21:56:51.658Z,2.50
2023-01-09T22:01:55.140Z,2.50
2023-01-09T22:06:59.995Z,1.80
2023-01-09T22:12:03.396Z,1.63
2023-01-09T22:17:06.808Z,1.40
2023-01-09T22:22:11.649Z,1.30
2023-01-09T22:27:15.030Z,1.50
2023-01-09T22:32:18.618Z,1.40
2023-01-09T22:37:23.551Z,1.33
2023-01-09T22:42:26.939Z,1.10
2023-01-09T22:47:30.291Z,0.93
2023-01-09T22:52:35.103Z,0.80
2023-01-09T22:57:38.507Z,0.60
2023-01-09T23:02:42.021Z,0.70
2023-01-09T23:07:46.923Z,0.67
2023-01-09T23:12:50.514Z,0.60
2023-01-09T23:17:53.989Z,0.57
2023-01-09T23:22:59.073Z,0.50
2023-01-09T23:28:02.524Z,0.40
2023-01-09T23:33:08.882Z,0.53
2023-01-09T23:38:13.821Z,0.60
2023-01-09T23:43:17.244Z,0.53
2023-01-09T23:48:20.795Z,0.67
2023-01-09T23:53:25.718Z,0.67
2023-01-09T23:58:29.151Z,0.60
